Time;durP1;ratioP1;P1;durP2;ratioP2;P2;SDS_P1;SDS_P2;PMS_P1;PMS_P2;Temp;Humidity;BMP_temperature;BMP_pressure;BME280_temperature;BME280_humidity;BME280_pressure;Samples;Min_cycle;Max_cycle;Signal;HPM_P1;HPM_P2
2022/06/27 00:00:06;;;;;;;13.70;4.85;;;18.00;99.90;;;;;;4955064;28;255122;-71
2022/06/27 00:02:32;;;;;;;10.65;4.35;;;18.00;99.90;;;;;;4943902;28;215941;-71
2022/06/27 00:04:58;;;;;;;11.63;4.55;;;18.00;99.90;;;;;;4938115;28;272679;-71
2022/06/27 00:07:24;;;;;;;10.60;4.35;;;18.00;99.90;;;;;;4951411;28;209377;-71
2022/06/27 00:09:50;;;;;;;10.13;4.47;;;18.00;99.90;;;;;;4956162;28;86921;-70
2022/06/27 00:12:17;;;;;;;11.98;4.90;;;17.90;99.90;;;;;;4938239;28;147466;-71
2022/06/27 00:14:43;;;;;;;9.38;4.53;;;17.90;99.90;;;;;;4960242;28;199325;-70
2022/06/27 00:17:09;;;;;;;12.02;5.40;;;17.90;99.90;;;;;;4964664;28;213966;-71
2022/06/27 00:19:35;;;;;;;10.88;5.43;;;17.90;99.90;;;;;;4967791;28;91811;-70
2022/06/27 00:22:01;;;;;;;12.00;5.20;;;17.90;99.90;;;;;;4915798;28;209006;-70
2022/06/27 00:24:27;;;;;;;11.20;6.00;;;17.90;99.90;;;;;;4949328;28;257023;-70
2022/06/27 00:26:53;;;;;;;12.95;6.35;;;17.90;99.90;;;;;;4933866;28;205438;-70
2022/06/27 00:29:20;;;;;;;12.48;6.47;;;17.90;99.90;;;;;;4945333;28;270980;-70
2022/06/27 00:31:46;;;;;;;12.57;5.90;;;17.80;99.90;;;;;;4909638;28;205757;-70
2022/06/27 00:34:12;;;;;;;11.50;6.03;;;17.80;99.90;;;;;;4949761;28;272235;-70
2022/06/27 00:36:38;;;;;;;11.73;6.00;;;17.80;99.90;;;;;;4942383;28;215013;-70
2022/06/27 00:39:04;;;;;;;11.02;6.38;;;17.80;99.90;;;;;;4968047;28;20046;-70
2022/06/27 00:41:30;;;;;;;12.52;6.32;;;17.80;99.90;;;;;;4937320;28;205744;-70
2022/06/27 00:43:56;;;;;;;12.30;5.82;;;17.80;99.90;;;;;;4974576;28;20067;-69
2022/06/27 00:46:23;;;;;;;13.13;6.40;;;17.80;99.90;;;;;;4910847;28;249831;-70
2022/06/27 00:48:49;;;;;;;11.10;5.35;;;17.80;99.90;;;;;;4966306;28;20050;-69
2022/06/27 00:51:15;;;;;;;13.52;6.10;;;17.70;99.90;;;;;;4918873;28;257062;-70
2022/06/27 00:53:41;;;;;;;12.40;6.00;;;17.70;99.90;;;;;;4964231;28;20162;-69
2022/06/27 00:56:08;;;;;;;10.13;5.72;;;17.80;99.90;;;;;;4915938;28;205214;-70
2022/06/27 00:58:34;;;;;;;13.10;6.50;;;17.80;99.90;;;;;;4966076;28;20131;-70
2022/06/27 01:01:00;;;;;;;11.68;6.03;;;17.80;99.90;;;;;;4918372;28;255161;-69
2022/06/27 01:03:26;;;;;;;12.25;6.88;;;17.80;99.90;;;;;;4981196;28;20062;-69
2022/06/27 01:05:52;;;;;;;9.70;5.55;;;17.80;99.90;;;;;;4901063;28;270447;-70
2022/06/27 01:08:24;;;;;;;11.77;7.10;;;17.70;99.90;;;;;;4978870;28;20058;-70
2022/06/27 01:10:51;;;;;;;14.80;8.18;;;17.80;99.90;;;;;;4909395;28;273486;-70
2022/06/27 01:13:18;;;;;;;13.35;7.28;;;17.70;99.90;;;;;;4979365;28;20055;-70
2022/06/27 01:15:45;;;;;;;13.52;8.10;;;17.70;99.90;;;;;;4906889;28;276133;-69
2022/06/27 01:18:12;;;;;;;16.65;8.18;;;17.70;99.90;;;;;;4984377;28;20054;-70
2022/06/27 01:20:42;;;;;;;11.68;7.07;;;17.70;99.90;;;;;;4937985;28;238345;-70
2022/06/27 01:23:08;;;;;;;17.38;7.85;;;17.70;99.90;;;;;;4983343;28;20134;-68
2022/06/27 01:25:37;;;;;;;11.30;6.40;;;17.70;99.90;;;;;;4915723;28;225733;-70
2022/06/27 01:28:05;;;;;;;12.45;7.10;;;17.60;99.90;;;;;;4962876;28;20493;-70
2022/06/27 01:30:31;;;;;;;14.02;7.97;;;17.60;99.90;;;;;;4930134;28;238541;-70
2022/06/27 01:32:58;;;;;;;12.38;7.40;;;17.60;99.90;;;;;;4986740;28;20627;-70
2022/06/27 01:35:24;;;;;;;12.43;7.10;;;17.60;99.90;;;;;;4906053;28;208304;-70
2022/06/27 01:37:50;;;;;;;13.10;7.57;;;17.60;99.90;;;;;;4979139;28;20110;-70
2022/06/27 01:40:16;;;;;;;12.52;6.78;;;17.60;99.90;;;;;;4928976;28;273578;-69
2022/06/27 01:42:43;;;;;;;12.15;7.13;;;17.60;99.90;;;;;;4962326;28;151270;-70
2022/06/27 01:45:10;;;;;;;12.30;7.10;;;17.60;99.90;;;;;;4955247;28;269682;-70
2022/06/27 01:47:36;;;;;;;16.17;9.52;;;17.60;99.90;;;;;;4928565;28;210128;-70
2022/06/27 01:50:03;;;;;;;13.18;7.95;;;17.60;99.90;;;;;;4953569;28;252022;-70
2022/06/27 01:52:31;;;;;;;15.48;9.45;;;17.60;99.90;;;;;;4935167;28;212012;-71
2022/06/27 01:54:57;;;;;;;14.35;8.75;;;17.60;99.90;;;;;;4952632;28;258708;-70
2022/06/27 01:57:24;;;;;;;15.20;10.18;;;17.60;99.90;;;;;;4952338;28;213967;-71
2022/06/27 01:59:51;;;;;;;14.75;9.55;;;17.70;99.90;;;;;;4951183;28;260842;-71
2022/06/27 02:02:19;;;;;;;12.80;8.10;;;17.70;99.90;;;;;;4940167;28;206718;-71
2022/06/27 02:04:46;;;;;;;15.07;10.40;;;17.60;99.90;;;;;;4942069;28;261784;-70
2022/06/27 02:07:16;;;;;;;14.00;9.50;;;17.60;99.90;;;;;;4913379;28;203810;-70
2022/06/27 02:09:42;;;;;;;17.95;10.05;;;17.60;99.90;;;;;;4947097;28;246357;-70
2022/06/27 02:12:18;;;;;;;14.05;8.90;;;17.60;99.90;;;;;;4928043;28;215078;-70
2022/06/27 02:14:53;;;;;;;18.73;10.52;;;17.50;99.90;;;;;;4957957;28;268911;-70
2022/06/27 02:17:21;;;;;;;17.20;10.63;;;17.50;99.90;;;;;;4955847;28;211522;-70
2022/06/27 02:19:48;;;;;;;15.32;10.48;;;17.50;99.90;;;;;;4949920;28;272540;-70
2022/06/27 02:22:14;;;;;;;17.98;10.32;;;17.40;99.90;;;;;;4940208;28;206977;-70
2022/06/27 02:24:42;;;;;;;14.60;9.18;;;17.40;99.90;;;;;;4950960;28;264069;-70
2022/06/27 02:27:09;;;;;;;12.38;8.90;;;17.40;99.90;;;;;;4936073;28;206643;-71
2022/06/27 02:29:36;;;;;;;15.30;9.55;;;17.30;99.90;;;;;;4959905;28;20578;-71
2022/06/27 02:32:03;;;;;;;13.43;8.45;;;17.40;99.90;;;;;;4945636;28;209284;-70
2022/06/27 02:34:29;;;;;;;12.40;8.13;;;17.40;99.90;;;;;;4957621;28;45731;-70
2022/06/27 02:36:56;;;;;;;14.55;8.80;;;17.40;99.90;;;;;;4940770;28;206772;-70
2022/06/27 02:39:25;;;;;;;17.90;10.43;;;17.40;99.90;;;;;;4960330;28;278686;-70
2022/06/27 02:41:54;;;;;;;12.63;7.90;;;17.40;99.90;;;;;;4956589;28;104256;-70
2022/06/27 02:44:21;;;;;;;13.98;8.18;;;17.50;99.90;;;;;;4952028;28;252028;-70
2022/06/27 02:46:50;;;;;;;13.38;8.98;;;17.40;99.90;;;;;;4939547;28;216201;-70
2022/06/27 02:49:17;;;;;;;13.98;9.70;;;17.40;99.90;;;;;;4963736;28;255801;-70
2022/06/27 02:51:56;;;;;;;14.35;9.63;;;17.50;99.90;;;;;;4933142;28;206978;-71
2022/06/27 02:54:42;;;;;;;14.90;9.23;;;17.50;99.90;;;;;;4943575;28;253924;-70
2022/06/27 02:57:18;;;;;;;13.68;8.80;;;17.40;99.90;;;;;;4952741;28;206516;-70
2022/06/27 02:59:47;;;;;;;15.38;9.65;;;17.40;99.90;;;;;;4952454;28;251953;-71
2022/06/27 03:02:16;;;;;;;15.32;9.45;;;17.40;99.90;;;;;;4945916;28;206632;-70
2022/06/27 03:04:42;;;;;;;12.82;9.15;;;17.40;99.90;;;;;;4937908;28;205948;-71
2022/06/27 03:07:09;;;;;;;16.17;12.07;;;17.40;99.90;;;;;;4947169;28;209677;-70
2022/06/27 03:09:35;;;;;;;15.85;10.85;;;17.40;99.90;;;;;;4951526;28;250303;-71
2022/06/27 03:12:01;;;;;;;14.13;9.00;;;17.40;99.90;;;;;;4942494;28;208945;-70
2022/06/27 03:14:27;;;;;;;19.20;10.48;;;17.30;99.90;;;;;;4952751;28;263231;-70
2022/06/27 03:16:53;;;;;;;16.33;11.70;;;17.30;99.90;;;;;;4930411;28;218472;-71
2022/06/27 03:19:19;;;;;;;15.80;9.18;;;17.40;99.90;;;;;;4948785;28;264297;-74
2022/06/27 03:21:46;;;;;;;15.25;11.40;;;17.40;99.90;;;;;;4944502;28;224066;-74
2022/06/27 03:24:12;;;;;;;14.95;11.40;;;17.40;99.90;;;;;;4957133;28;266582;-74
2022/06/27 03:26:38;;;;;;;16.02;12.15;;;17.30;99.90;;;;;;4944432;28;217063;-74
2022/06/27 03:29:04;;;;;;;15.30;12.02;;;17.40;99.90;;;;;;4951375;28;20051;-74
2022/06/27 03:31:31;;;;;;;15.60;11.90;;;17.40;99.90;;;;;;4907099;28;209376;-74
2022/06/27 03:33:57;;;;;;;18.85;13.50;;;17.40;99.90;;;;;;4953824;28;20054;-74
2022/06/27 03:36:23;;;;;;;19.90;13.85;;;17.40;99.90;;;;;;4917638;28;205835;-74
2022/06/27 03:38:49;;;;;;;18.08;14.20;;;17.40;99.90;;;;;;4969525;28;20293;-74
2022/06/27 03:41:16;;;;;;;18.92;13.05;;;17.30;99.90;;;;;;4934562;28;223988;-75
2022/06/27 03:43:42;;;;;;;18.00;13.70;;;17.30;99.90;;;;;;4979292;28;20069;-76
2022/06/27 03:46:08;;;;;;;19.08;14.38;;;17.30;99.90;;;;;;4923761;28;207071;-74
2022/06/27 03:51:19;;;;;;;20.73;14.15;;;17.40;99.90;;;;;;4921144;28;207256;-76
2022/06/27 03:53:45;;;;;;;16.27;12.90;;;17.30;99.90;;;;;;4981709;28;20330;-80
2022/06/27 03:56:11;;;;;;;18.00;14.05;;;17.30;99.90;;;;;;4924067;28;265202;-77
2022/06/27 03:58:37;;;;;;;17.65;13.07;;;17.40;99.90;;;;;;4968162;28;20062;-75
2022/06/27 04:01:04;;;;;;;18.58;14.68;;;17.40;99.90;;;;;;4926356;28;202455;-74
2022/06/27 04:03:30;;;;;;;21.25;16.80;;;17.40;99.90;;;;;;4963570;28;20047;-76
2022/06/27 04:05:57;;;;;;;20.02;16.10;;;17.40;99.90;;;;;;4898773;28;250583;-75
2022/06/27 04:08:24;;;;;;;24.83;17.60;;;17.40;99.90;;;;;;4962489;28;20058;-75
2022/06/27 04:10:50;;;;;;;17.65;14.07;;;17.40;99.90;;;;;;4910252;28;205493;-74
2022/06/27 04:13:16;;;;;;;19.00;15.65;;;17.40;99.90;;;;;;4970911;28;20050;-77
2022/06/27 04:15:42;;;;;;;19.00;14.45;;;17.40;99.90;;;;;;4912569;28;207341;-74
2022/06/27 04:18:08;;;;;;;21.73;17.35;;;17.40;99.90;;;;;;4973422;28;20051;-74
2022/06/27 04:20:34;;;;;;;20.70;17.97;;;17.50;99.90;;;;;;4931055;28;226652;-75
2022/06/27 04:23:00;;;;;;;17.90;15.20;;;17.50;99.90;;;;;;4965500;28;20555;-78
2022/06/27 04:25:27;;;;;;;20.33;17.10;;;17.40;99.90;;;;;;4912807;28;229762;-77
2022/06/27 04:27:53;;;;;;;22.30;18.52;;;17.40;99.90;;;;;;4937013;28;20396;-75
2022/06/27 04:30:19;;;;;;;22.27;17.85;;;17.40;99.90;;;;;;4906808;28;269821;-74
2022/06/27 04:32:50;;;;;;;20.50;16.92;;;17.40;99.90;;;;;;4974195;28;20428;-75
2022/06/27 04:35:17;;;;;;;20.60;16.50;;;17.50;99.90;;;;;;4931745;28;251422;-74
2022/06/27 04:37:43;;;;;;;22.38;16.33;;;17.50;99.90;;;;;;4945827;28;205864;-78
2022/06/27 04:40:12;;;;;;;20.08;15.35;;;17.40;99.90;;;;;;4952641;28;265794;-75
2022/06/27 04:42:39;;;;;;;15.75;13.10;;;17.50;99.90;;;;;;4945595;28;250934;-79
2022/06/27 04:45:11;;;;;;;15.55;11.43;;;17.40;99.90;;;;;;4948535;28;199236;-78
2022/06/27 04:47:42;;;;;;;14.88;11.10;;;17.40;99.90;;;;;;4949288;28;212203;-77
2022/06/27 04:50:10;;;;;;;13.80;10.13;;;17.50;99.90;;;;;;4977298;28;45729;-77
2022/06/27 04:52:40;;;;;;;14.73;10.75;;;17.40;99.90;;;;;;4921348;28;207026;-73
2022/06/27 04:55:08;;;;;;;18.27;10.40;;;17.50;99.90;;;;;;4951434;28;258825;-76
2022/06/27 04:57:40;;;;;;;15.70;11.25;;;17.40;99.90;;;;;;4939562;28;205824;-80
2022/06/27 05:00:09;;;;;;;13.77;10.27;;;17.50;99.90;;;;;;4995698;28;181188;-76
2022/06/27 05:02:35;;;;;;;13.18;9.00;;;17.50;99.90;;;;;;4948474;28;205478;-78
2022/06/27 05:05:03;;;;;;;14.60;8.32;;;17.50;99.90;;;;;;4933329;28;270247;-77
2022/06/27 05:07:30;;;;;;;12.48;7.28;;;17.50;99.90;;;;;;4935413;28;206748;-75
2022/06/27 05:09:58;;;;;;;11.13;6.90;;;17.40;99.90;;;;;;4948103;28;138422;-75
2022/06/27 05:12:26;;;;;;;11.20;6.28;;;17.40;99.90;;;;;;4943637;28;174473;-77
2022/06/27 05:14:53;;;;;;;10.60;4.93;;;17.40;99.90;;;;;;4934163;28;192567;-75
2022/06/27 05:17:21;;;;;;;10.07;4.05;;;17.40;99.90;;;;;;4929250;28;206119;-76
2022/06/27 05:19:47;;;;;;;8.07;3.35;;;17.40;99.90;;;;;;4943142;28;165657;-74
2022/06/27 05:22:13;;;;;;;8.10;3.28;;;17.30;99.90;;;;;;4928141;28;205472;-75
2022/06/27 05:24:39;;;;;;;8.35;3.42;;;17.20;99.90;;;;;;4941983;28;200616;-73
2022/06/27 05:27:06;;;;;;;9.35;3.50;;;17.20;99.90;;;;;;4927161;28;206033;-74
2022/06/27 05:29:32;;;;;;;7.57;3.10;;;17.20;99.90;;;;;;4943940;28;241518;-76
2022/06/27 05:31:59;;;;;;;7.55;3.08;;;17.30;99.90;;;;;;4949323;28;206148;-74
2022/06/27 05:34:25;;;;;;;7.80;3.00;;;17.30;99.90;;;;;;4948603;28;263147;-74
2022/06/27 05:36:51;;;;;;;7.80;3.00;;;17.20;99.90;;;;;;4924126;28;220614;-74
2022/06/27 05:39:18;;;;;;;9.68;3.15;;;17.20;99.90;;;;;;4939721;28;255374;-74
2022/06/27 05:41:45;;;;;;;8.05;2.50;;;17.30;99.90;;;;;;4937887;28;207450;-75
2022/06/27 05:44:13;;;;;;;10.13;3.22;;;17.40;99.90;;;;;;4949294;28;249242;-75
2022/06/27 05:46:41;;;;;;;7.88;2.67;;;17.50;99.90;;;;;;4926241;28;205555;-75
2022/06/27 05:49:11;;;;;;;9.95;2.67;;;17.60;99.90;;;;;;4930511;28;273783;-76
2022/06/27 05:51:38;;;;;;;7.30;2.60;;;17.70;99.90;;;;;;4933540;28;206364;-76
2022/06/27 05:54:05;;;;;;;7.45;2.55;;;17.80;99.90;;;;;;4943079;28;20063;-76
2022/06/27 05:56:33;;;;;;;7.65;2.55;;;18.00;99.90;;;;;;4894120;28;211943;-74
2022/06/27 05:59:00;;;;;;;7.75;2.60;;;18.00;99.90;;;;;;4962895;28;20055;-75
2022/06/27 06:01:27;;;;;;;7.25;2.30;;;18.00;99.90;;;;;;4909905;28;160907;-75
2022/06/27 06:03:53;;;;;;;7.45;2.45;;;18.00;99.90;;;;;;4966958;28;20043;-78
2022/06/27 06:06:19;;;;;;;7.78;2.50;;;18.10;99.90;;;;;;4904124;28;265314;-76
2022/06/27 06:08:45;;;;;;;6.57;2.30;;;18.00;99.90;;;;;;4951017;28;20055;-76
2022/06/27 06:11:13;;;;;;;6.63;2.13;;;18.10;99.90;;;;;;4917755;28;262023;-75
2022/06/27 06:13:40;;;;;;;7.43;2.20;;;18.00;99.90;;;;;;4960069;28;20055;-74
2022/06/27 06:16:06;;;;;;;7.70;2.35;;;17.90;99.90;;;;;;4911897;28;272834;-74
2022/06/27 06:18:34;;;;;;;6.60;2.28;;;17.90;99.90;;;;;;4971522;28;20062;-75
2022/06/27 06:21:01;;;;;;;8.00;2.33;;;18.00;99.90;;;;;;4920699;28;265245;-73
2022/06/27 06:23:27;;;;;;;8.45;2.40;;;18.00;99.90;;;;;;4972513;28;20070;-73
2022/06/27 06:25:54;;;;;;;6.55;2.10;;;18.00;99.90;;;;;;4914892;28;211067;-76
2022/06/27 06:28:21;;;;;;;6.80;2.30;;;17.90;99.90;;;;;;4967884;28;20070;-74
2022/06/27 06:30:47;;;;;;;8.10;2.25;;;18.00;99.90;;;;;;4906300;28;203976;-74
2022/06/27 06:33:14;;;;;;;7.55;2.10;;;18.00;99.90;;;;;;4977465;28;21512;-75
2022/06/27 06:35:40;;;;;;;6.90;2.28;;;18.00;99.90;;;;;;4911611;28;204333;-75
2022/06/27 06:38:07;;;;;;;7.40;2.53;;;18.00;99.90;;;;;;4951657;28;20058;-75
2022/06/27 06:40:33;;;;;;;7.72;2.30;;;18.00;99.90;;;;;;4911981;28;259041;-72
2022/06/27 06:43:00;;;;;;;8.77;2.25;;;18.10;99.90;;;;;;4974847;28;20047;-73
2022/06/27 06:45:27;;;;;;;6.43;2.17;;;18.10;99.90;;;;;;4910084;28;273866;-73
2022/06/27 06:47:54;;;;;;;6.43;2.05;;;18.10;99.90;;;;;;4959810;28;20051;-73
2022/06/27 06:50:20;;;;;;;6.72;2.08;;;18.20;99.90;;;;;;4909322;28;138317;-74
2022/06/27 06:52:49;;;;;;;7.10;2.13;;;18.20;99.90;;;;;;4991284;28;20317;-75
2022/06/27 06:55:16;;;;;;;6.68;1.90;;;18.20;99.90;;;;;;4955663;28;292132;-75
2022/06/27 06:57:43;;;;;;;7.70;1.90;;;18.20;99.90;;;;;;4941830;28;229202;-74
2022/06/27 07:00:10;;;;;;;7.90;2.30;;;18.20;99.90;;;;;;4951953;28;248465;-73
2022/06/27 07:02:37;;;;;;;7.68;2.60;;;18.10;99.90;;;;;;4952731;28;206853;-74
2022/06/27 07:05:08;;;;;;;8.23;2.80;;;18.00;99.90;;;;;;4932186;28;256795;-72
2022/06/27 07:07:34;;;;;;;;;;;18.00;99.90;;;;;;4934687;28;205724;-73
2022/06/27 07:10:01;;;;;;;8.15;2.60;;;17.90;99.90;;;;;;4974273;28;19925;-74
2022/06/27 07:12:29;;;;;;;6.97;2.40;;;17.90;99.90;;;;;;4935119;28;207088;-76
2022/06/27 07:14:56;;;;;;;7.63;2.25;;;17.90;99.90;;;;;;4943636;28;270817;-75
2022/06/27 07:17:24;;;;;;;7.25;2.20;;;17.90;99.90;;;;;;4955740;28;133588;-75
2022/06/27 07:19:52;;;;;;;7.53;2.30;;;17.80;99.90;;;;;;4966306;28;223221;-74
2022/06/27 07:22:19;;;;;;;7.05;2.40;;;17.70;99.90;;;;;;4949299;28;210692;-72
2022/06/27 07:24:47;;;;;;;6.70;2.38;;;17.80;99.90;;;;;;4964915;28;192595;-72
2022/06/27 07:27:17;;;;;;;7.05;2.25;;;17.70;99.90;;;;;;4950161;28;206109;-73
2022/06/27 07:29:44;;;;;;;7.25;2.25;;;17.80;99.90;;;;;;4973649;28;181801;-73
2022/06/27 07:32:10;;;;;;;8.50;2.60;;;17.80;99.90;;;;;;4946792;28;207178;-73
2022/06/27 07:34:38;;;;;;;7.70;2.58;;;17.90;99.90;;;;;;4945077;28;264526;-73
2022/06/27 07:37:04;;;;;;;7.15;2.20;;;17.90;99.90;;;;;;4932425;28;206775;-75
2022/06/27 07:39:31;;;;;;;6.57;2.38;;;17.90;99.90;;;;;;4948353;28;250855;-74
2022/06/27 07:41:57;;;;;;;7.85;2.40;;;17.90;99.90;;;;;;4956433;28;183011;-75
2022/06/27 07:44:24;;;;;;;8.95;2.85;;;17.90;99.90;;;;;;4952530;28;267303;-73
2022/06/27 07:46:51;;;;;;;9.07;2.80;;;17.90;99.90;;;;;;4943248;28;206427;-73
2022/06/27 07:49:17;;;;;;;7.23;2.60;;;17.90;99.90;;;;;;4960405;28;250927;-73
2022/06/27 07:51:43;;;;;;;8.68;2.92;;;17.90;99.90;;;;;;4910534;28;222952;-74
2022/06/27 07:54:10;;;;;;;8.45;2.90;;;17.90;99.90;;;;;;4942939;28;258403;-73
2022/06/27 07:56:37;;;;;;;9.23;3.25;;;17.90;99.90;;;;;;4926879;28;207558;-72
2022/06/27 07:59:06;;;;;;;10.50;2.88;;;18.00;99.90;;;;;;4963582;28;20047;-73
2022/06/27 08:01:32;;;;;;;8.80;2.80;;;18.00;99.90;;;;;;4927533;28;205930;-73
2022/06/27 08:03:59;;;;;;;6.95;2.58;;;18.20;99.90;;;;;;4967742;28;20158;-72
2022/06/27 08:06:28;;;;;;;7.90;2.67;;;18.20;99.90;;;;;;4908878;28;186736;-72
2022/06/27 08:08:57;;;;;;;10.32;3.15;;;18.30;99.90;;;;;;4962262;28;20501;-72
2022/06/27 08:11:26;;;;;;;8.20;2.85;;;18.40;99.90;;;;;;4909237;28;206071;-72
2022/06/27 08:13:55;;;;;;;8.55;2.70;;;18.50;99.90;;;;;;4963218;28;20070;-73
2022/06/27 08:16:24;;;;;;;8.98;3.05;;;18.60;99.90;;;;;;4923409;28;266191;-77
2022/06/27 08:18:52;;;;;;;9.80;3.00;;;18.80;99.90;;;;;;4971450;28;20072;-72
2022/06/27 08:21:25;;;;;;;8.55;2.88;;;19.00;99.90;;;;;;4915806;28;272126;-73
2022/06/27 08:23:53;;;;;;;9.77;2.75;;;19.20;99.90;;;;;;4970880;28;20043;-73
2022/06/27 08:26:21;;;;;;;9.00;2.50;;;19.30;99.90;;;;;;4918544;28;270717;-73
2022/06/27 08:28:48;;;;;;;7.97;2.70;;;19.50;99.90;;;;;;4981959;28;20054;-72
2022/06/27 08:31:15;;;;;;;7.70;2.60;;;19.60;99.90;;;;;;4930075;28;262080;-72
2022/06/27 08:33:43;;;;;;;6.75;2.50;;;19.60;99.90;;;;;;4955452;28;20397;-72
2022/06/27 08:36:12;;;;;;;7.57;2.90;;;19.60;99.90;;;;;;4893241;28;248572;-72
2022/06/27 08:38:51;;;;;;;7.00;2.90;;;19.60;99.90;;;;;;4960904;28;20102;-73
2022/06/27 08:41:19;;;;;;;8.00;3.00;;;19.60;99.90;;;;;;4920538;28;206869;-73
2022/06/27 08:43:47;;;;;;;9.07;2.83;;;19.60;99.90;;;;;;4969698;28;20047;-72
2022/06/27 08:46:16;;;;;;;7.20;2.72;;;19.60;99.90;;;;;;4909125;28;206272;-72
2022/06/27 08:48:45;;;;;;;7.82;2.38;;;19.50;99.90;;;;;;4953957;28;20047;-76
2022/06/27 08:51:12;;;;;;;6.95;2.50;;;19.50;99.90;;;;;;4901789;28;219514;-72
2022/06/27 08:53:39;;;;;;;9.20;2.72;;;19.50;99.90;;;;;;4972699;28;20063;-75
2022/06/27 08:56:12;;;;;;;7.57;2.70;;;19.50;99.90;;;;;;4902941;28;211013;-74
2022/06/27 08:58:40;;;;;;;6.82;2.42;;;19.50;99.90;;;;;;4969523;28;20382;-73
2022/06/27 09:01:07;;;;;;;7.63;2.70;;;19.50;99.90;;;;;;4901696;28;211822;-72
2022/06/27 09:03:34;;;;;;;7.07;2.72;;;19.60;99.90;;;;;;4971671;28;20054;-72
2022/06/27 09:06:03;;;;;;;8.10;2.40;;;19.70;99.90;;;;;;4895737;28;206220;-72
2022/06/27 09:08:36;;;;;;;7.25;2.60;;;19.80;99.90;;;;;;4961286;28;20516;-73
2022/06/27 09:11:03;;;;;;;7.97;2.85;;;20.00;99.90;;;;;;4915809;28;209270;-73
2022/06/27 09:13:30;;;;;;;9.70;2.72;;;20.30;99.90;;;;;;4955850;28;20070;-76
2022/06/27 09:15:58;;;;;;;8.38;2.45;;;20.40;99.90;;;;;;4928643;28;210413;-77
2022/06/27 09:18:26;;;;;;;6.75;2.28;;;20.60;99.90;;;;;;4972302;28;20055;-69
2022/06/27 09:20:52;;;;;;;6.70;2.00;;;20.70;99.90;;;;;;4918134;28;255221;-68
2022/06/27 09:23:49;;;;;;;6.03;1.90;;;20.70;99.90;;;;;;4970461;28;20065;-69
2022/06/27 09:26:15;;;;;;;7.10;2.00;;;20.80;99.90;;;;;;4917846;28;254408;-69
2022/06/27 09:28:42;;;;;;;7.07;2.03;;;20.70;99.90;;;;;;4953934;28;20563;-69
2022/06/27 09:31:12;;;;;;;6.65;2.20;;;20.70;99.90;;;;;;4932765;28;206078;-69
2022/06/27 09:33:41;;;;;;;6.75;2.10;;;20.70;99.90;;;;;;4955075;28;20526;-69
2022/06/27 09:36:13;;;;;;;5.82;1.60;;;20.60;99.90;;;;;;4913353;28;270862;-68
2022/06/27 09:38:40;;;;;;;7.47;1.92;;;20.50;99.90;;;;;;4964231;28;20047;-69
2022/06/27 09:41:10;;;;;;;8.00;2.20;;;20.30;99.90;;;;;;4920422;28;257689;-69
2022/06/27 09:43:41;;;;;;;7.65;2.30;;;20.30;99.90;;;;;;4977729;28;20055;-69
2022/06/27 09:46:08;;;;;;;;;;;20.40;99.90;;;;;;4917037;28;261610;-69
2022/06/27 09:48:35;;;;;;;8.82;2.80;;;20.30;99.90;;;;;;4954014;28;20265;-69
2022/06/27 09:51:02;;;;;;;7.50;2.60;;;20.30;99.90;;;;;;4912130;28;272644;-69
2022/06/27 09:53:29;;;;;;;7.57;2.33;;;20.40;99.90;;;;;;4966271;28;20051;-70
2022/06/27 09:55:58;;;;;;;6.60;2.20;;;20.30;99.90;;;;;;4913778;28;252185;-69
2022/06/27 09:58:26;;;;;;;7.80;2.10;;;20.30;99.90;;;;;;4972912;28;20501;-69
2022/06/27 10:00:53;;;;;;;6.53;1.92;;;20.30;99.90;;;;;;4918402;28;255876;-69
2022/06/27 10:03:20;;;;;;;7.53;2.28;;;20.30;99.90;;;;;;4986804;28;20065;-69
2022/06/27 10:05:47;;;;;;;8.05;2.00;;;20.30;99.90;;;;;;4889042;28;215154;-69
2022/06/27 10:08:14;;;;;;;6.05;2.00;;;20.30;99.90;;;;;;4973940;28;20055;-69
2022/06/27 10:11:08;;;;;;;7.63;2.30;;;20.30;99.90;;;;;;4915667;28;266045;-69
2022/06/27 10:13:42;;;;;;;7.47;2.60;;;20.40;99.90;;;;;;4978058;28;20387;-69
2022/06/27 10:16:13;;;;;;;6.70;2.40;;;20.40;99.90;;;;;;4903437;28;208666;-69
2022/06/27 10:18:52;;;;;;;7.00;2.45;;;20.40;99.90;;;;;;4961651;28;20050;-69
2022/06/27 10:21:41;;;;;;;8.38;2.55;;;20.40;99.90;;;;;;4926385;28;206883;-69
2022/06/27 10:24:19;;;;;;;7.03;2.30;;;20.50;99.90;;;;;;4950120;28;273285;-69
2022/06/27 10:26:48;;;;;;;7.05;2.15;;;20.50;99.90;;;;;;4946005;28;210791;-71
2022/06/27 10:29:42;;;;;;;6.38;2.25;;;20.50;99.90;;;;;;4958526;28;264410;-69
2022/06/27 10:32:50;;;;;;;8.80;2.50;;;20.60;99.90;;;;;;4943794;28;215719;-70
2022/06/27 10:35:16;;;;;;;6.03;1.80;;;20.70;99.90;;;;;;4928164;28;259695;-68
2022/06/27 10:37:43;;;;;;;5.65;1.80;;;20.60;99.90;;;;;;4975909;28;177826;-70
2022/06/27 10:40:18;;;;;;;6.97;1.90;;;20.70;99.90;;;;;;4952193;28;265562;-69
2022/06/27 10:42:53;;;;;;;6.50;1.90;;;20.80;99.90;;;;;;4941350;28;207443;-69
2022/06/27 10:45:26;;;;;;;6.40;1.75;;;20.80;99.90;;;;;;4912526;28;268776;-68
2022/06/27 10:47:58;;;;;;;7.85;2.00;;;20.80;99.90;;;;;;4991012;28;20053;-70
2022/06/27 10:50:26;;;;;;;6.15;1.95;;;20.80;99.90;;;;;;4902204;28;259143;-71
2022/06/27 10:53:25;;;;;;;6.63;1.98;;;20.80;99.90;;;;;;4972932;28;20055;-70
2022/06/27 10:55:52;;;;;;;7.68;1.98;;;20.90;99.90;;;;;;4915614;28;276981;-69
2022/06/27 10:58:27;;;;;;;7.22;2.10;;;21.00;99.90;;;;;;4971522;28;20446;-70
2022/06/27 11:01:13;;;;;;;6.45;1.80;;;21.00;99.90;;;;;;4919478;28;272033;-70
2022/06/27 11:03:40;;;;;;;6.85;1.92;;;21.00;99.90;;;;;;4969069;28;20509;-69
2022/06/27 11:06:08;;;;;;;6.10;2.00;;;20.90;99.90;;;;;;4907241;28;267389;-71
2022/06/27 11:08:37;;;;;;;6.18;2.08;;;20.90;99.90;;;;;;4976856;28;20051;-70
2022/06/27 11:11:05;;;;;;;6.88;1.88;;;20.90;99.90;;;;;;4924184;28;265889;-70
2022/06/27 11:13:58;;;;;;;6.85;2.13;;;20.90;99.90;;;;;;4973758;28;20070;-70
2022/06/27 11:16:30;;;;;;;7.45;2.38;;;20.90;99.90;;;;;;4922620;28;251542;-69
2022/06/27 11:21:52;;;;;;;6.65;2.15;;;20.70;99.90;;;;;;4919157;28;206333;-70
2022/06/27 11:24:18;;;;;;;7.47;2.13;;;20.70;99.90;;;;;;4950274;28;247866;-69
2022/06/27 11:26:47;;;;;;;6.43;2.05;;;20.90;99.90;;;;;;4951246;28;205848;-69
2022/06/27 11:32:13;;;;;;;7.63;2.20;;;21.00;99.90;;;;;;4932011;28;205546;-70
2022/06/27 11:34:51;;;;;;;6.85;2.10;;;21.00;99.90;;;;;;4962712;28;104925;-70
2022/06/27 11:37:23;;;;;;;7.60;2.15;;;20.90;99.90;;;;;;4949800;28;206219;-70
2022/06/27 11:40:05;;;;;;;8.70;2.40;;;20.90;99.90;;;;;;4951325;28;255041;-70
2022/06/27 11:42:34;;;;;;;7.55;2.30;;;21.00;99.90;;;;;;4943035;28;218679;-70
2022/06/27 11:45:07;;;;;;;8.77;2.50;;;21.00;99.90;;;;;;4950061;28;259454;-70
2022/06/27 11:47:37;;;;;;;6.78;2.30;;;21.10;99.90;;;;;;4950864;28;208246;-69
2022/06/27 11:50:11;;;;;;;7.22;2.40;;;21.20;99.90;;;;;;4977972;28;62562;-70
2022/06/27 11:52:45;;;;;;;8.32;2.30;;;21.30;99.90;;;;;;4938312;28;202662;-70
2022/06/27 11:55:14;;;;;;;6.80;2.03;;;21.30;99.90;;;;;;4977370;28;204190;-70
2022/06/27 11:57:47;;;;;;;6.57;2.20;;;21.30;99.90;;;;;;4941009;28;206741;-69
2022/06/27 12:00:22;;;;;;;7.97;2.47;;;21.30;99.90;;;;;;4948430;28;253150;-69
2022/06/27 12:02:58;;;;;;;6.60;2.30;;;21.20;99.90;;;;;;4967011;28;130778;-70
2022/06/27 12:05:25;;;;;;;6.47;2.25;;;21.20;99.90;;;;;;4897712;28;257233;-69
2022/06/27 12:07:56;;;;;;;6.85;2.15;;;21.20;99.90;;;;;;4991462;28;20058;-70
2022/06/27 12:10:41;;;;;;;5.82;1.88;;;21.30;99.90;;;;;;4906798;28;272293;-69
2022/06/27 12:13:15;;;;;;;7.32;2.20;;;21.40;99.90;;;;;;4957869;28;20054;-69
2022/06/27 12:15:45;;;;;;;6.40;2.10;;;21.50;99.90;;;;;;4915503;28;267523;-70
2022/06/27 12:18:12;;;;;;;6.68;2.10;;;21.60;99.90;;;;;;4984330;28;20063;-70
2022/06/27 12:20:41;;;;;;;9.82;2.67;;;21.80;99.90;;;;;;4913661;28;265806;-70
2022/06/27 12:23:08;;;;;;;8.95;2.60;;;22.00;99.90;;;;;;4974858;28;20058;-70
2022/06/27 12:25:37;;;;;;;7.68;2.72;;;22.10;99.90;;;;;;4927985;28;163535;-69
2022/06/27 12:28:05;;;;;;;6.65;2.63;;;22.30;99.90;;;;;;4975586;28;20073;-70
2022/06/27 12:30:32;;;;;;;8.00;2.55;;;22.40;99.90;;;;;;4905304;28;269991;-69
2022/06/27 12:32:58;;;;;;;7.80;2.60;;;22.50;99.90;;;;;;4986011;28;20042;-70
2022/06/27 12:35:25;;;;;;;8.63;3.00;;;22.50;99.90;;;;;;4904026;28;255445;-69
2022/06/27 12:37:57;;;;;;;7.82;3.13;;;22.50;99.90;;;;;;4984169;28;20050;-70
2022/06/27 12:40:23;;;;;;;7.35;2.90;;;22.40;99.90;;;;;;4911547;28;277615;-69
2022/06/27 12:42:49;;;;;;;7.85;2.80;;;22.20;99.90;;;;;;4990051;28;20047;-69
2022/06/27 12:45:15;;;;;;;9.07;3.10;;;22.10;99.90;;;;;;4934147;28;255128;-69
2022/06/27 12:47:41;;;;;;;10.63;2.90;;;22.10;99.90;;;;;;4946867;28;207606;-70